createdAt,value
2017-10-26T00:02:04.496Z,103.20
2017-10-26T00:04:32.015Z,106.93
2017-10-26T00:07:00.312Z,92.83
2017-10-26T00:09:27.867Z,103.67
2017-10-26T00:11:56.159Z,105.37
2017-10-26T00:14:23.691Z,120.13
2017-10-26T00:16:51.987Z,108.33
2017-10-26T00:19:19.532Z,124.40
2017-10-26T00:21:47.827Z,106.27
2017-10-26T00:24:15.355Z,122.33
2017-10-26T00:26:42.889Z,117.10
2017-10-26T00:29:10.415Z,104.40
2017-10-26T00:31:37.954Z,108.40
2017-10-26T00:34:05.482Z,102.70
2017-10-26T00:36:33.005Z,114.63
2017-10-26T00:39:00.552Z,98.73
2017-10-26T00:41:28.068Z,108.13
2017-10-26T00:43:56.376Z,95.57
2017-10-26T00:46:23.951Z,110.07
2017-10-26T00:48:51.459Z,101.60
2017-10-26T00:51:19.066Z,90.80
2017-10-26T00:53:46.573Z,99.03
2017-10-26T00:56:14.119Z,83.10
2017-10-26T00:58:41.644Z,91.57
2017-10-26T01:01:09.199Z,84.57
2017-10-26T01:03:36.709Z,97.77
2017-10-26T01:06:04.984Z,93.70
2017-10-26T01:08:32.527Z,85.10
2017-10-26T01:11:00.062Z,83.70
2017-10-26T01:13:27.592Z,80.33
2017-10-26T01:15:55.106Z,84.57
2017-10-26T01:18:22.648Z,86.70
2017-10-26T01:20:50.171Z,86.33
2017-10-26T01:23:17.684Z,94.50
2017-10-26T01:25:45.230Z,93.87
2017-10-26T01:28:12.763Z,84.77
2017-10-26T01:30:40.288Z,92.90
2017-10-26T01:33:08.582Z,111.07
2017-10-26T01:35:36.112Z,96.23
2017-10-26T01:38:04.396Z,94.23
2017-10-26T01:40:32.663Z,90.57
2017-10-26T01:43:00.976Z,98.47
2017-10-26T01:45:28.493Z,95.60
2017-10-26T01:47:56.043Z,104.60
2017-10-26T01:50:23.557Z,102.43
2017-10-26T01:52:51.096Z,99.97
2017-10-26T01:55:18.626Z,101.43
2017-10-26T01:57:46.144Z,105.83
2017-10-26T02:00:13.707Z,104.57
2017-10-26T02:02:41.250Z,102.07
2017-10-26T02:05:08.801Z,104.87
2017-10-26T02:07:36.335Z,108.93
2017-10-26T02:10:04.663Z,106.30
2017-10-26T02:12:32.177Z,116.10
2017-10-26T02:14:59.714Z,102.57
2017-10-26T02:17:28.026Z,112.50
2017-10-26T02:19:55.554Z,106.60
2017-10-26T02:22:23.876Z,106.20
2017-10-26T02:24:51.406Z,94.67
2017-10-26T02:27:19.739Z,123.00
2017-10-26T02:29:59.095Z,106.30
2017-10-26T02:32:26.640Z,112.77
2017-10-26T02:34:54.152Z,102.40
2017-10-26T02:37:21.671Z,105.83
2017-10-26T02:39:49.197Z,102.83
2017-10-26T02:42:16.717Z,103.10
2017-10-26T02:44:44.251Z,111.23
2017-10-26T02:47:12.546Z,106.50
2017-10-26T02:49:40.867Z,96.07
2017-10-26T02:52:08.381Z,100.23
2017-10-26T02:54:35.918Z,96.87
2017-10-26T02:57:04.255Z,102.17
2017-10-26T02:59:31.768Z,105.93
2017-10-26T03:02:00.057Z,92.73
2017-10-26T03:04:27.586Z,93.10
2017-10-26T03:06:55.120Z,103.83
2017-10-26T03:09:22.648Z,106.97
2017-10-26T03:11:50.183Z,115.53
2017-10-26T03:14:18.495Z,103.60
2017-10-26T03:16:46.022Z,109.57
2017-10-26T03:19:14.321Z,101.40
2017-10-26T03:21:41.829Z,91.17
2017-10-26T03:24:09.369Z,93.43
2017-10-26T03:26:36.906Z,99.53
2017-10-26T03:29:04.439Z,92.93
2017-10-26T03:31:31.983Z,84.80
2017-10-26T03:34:00.271Z,84.03
2017-10-26T03:36:27.805Z,86.80
2017-10-26T03:38:55.330Z,84.03
2017-10-26T03:41:22.883Z,93.90
2017-10-26T03:43:50.396Z,88.53
2017-10-26T03:46:18.707Z,80.97
2017-10-26T03:48:46.212Z,99.10
2017-10-26T03:51:13.742Z,87.23
2017-10-26T03:53:41.295Z,94.17
2017-10-26T03:56:08.804Z,86.90
2017-10-26T03:58:37.116Z,90.97
2017-10-26T04:01:04.651Z,87.57
2017-10-26T04:03:32.201Z,93.40
2017-10-26T04:06:00.491Z,93.00
2017-10-26T04:08:28.047Z,86.70
2017-10-26T04:10:55.572Z,92.27
2017-10-26T04:13:23.100Z,92.97
2017-10-26T04:15:50.655Z,88.67
2017-10-26T04:18:18.183Z,88.30
2017-10-26T04:20:45.727Z,84.17
2017-10-26T04:23:14.021Z,84.80
2017-10-26T04:25:41.560Z,92.00
2017-10-26T04:28:09.851Z,82.03
2017-10-26T04:30:37.407Z,89.30
2017-10-26T04:33:05.057Z,93.43
2017-10-26T04:35:33.351Z,93.13
2017-10-26T04:38:00.894Z,84.70
2017-10-26T04:40:29.190Z,90.60
2017-10-26T04:42:56.720Z,79.80
2017-10-26T04:45:25.019Z,89.87
2017-10-26T04:47:52.548Z,88.53
2017-10-26T04:50:20.060Z,88.50
2017-10-26T04:52:47.607Z,83.27
2017-10-26T04:55:15.117Z,80.17
2017-10-26T04:57:42.642Z,74.63
2017-10-26T05:00:10.188Z,79.47
2017-10-26T05:02:37.719Z,78.80
2017-10-26T05:05:06.027Z,87.90
2017-10-26T05:07:33.528Z,87.17
2017-10-26T05:10:01.069Z,76.63
2017-10-26T05:12:28.600Z,83.70
2017-10-26T05:14:56.103Z,76.00
2017-10-26T05:17:23.637Z,82.30
2017-10-26T05:19:51.756Z,82.50
2017-10-26T05:22:20.076Z,77.43
2017-10-26T05:24:47.601Z,89.83
2017-10-26T05:27:15.185Z,84.43
2017-10-26T05:29:42.722Z,74.90
2017-10-26T05:32:10.253Z,71.90
2017-10-26T05:34:38.568Z,80.70
2017-10-26T05:37:06.085Z,77.20
2017-10-26T05:39:33.608Z,87.93
2017-10-26T05:42:01.107Z,81.60
2017-10-26T05:44:28.659Z,75.53
2017-10-26T05:46:56.179Z,89.63
2017-10-26T05:49:23.718Z,78.63
2017-10-26T05:51:51.247Z,73.00
2017-10-26T05:54:19.548Z,73.23
2017-10-26T05:56:47.061Z,76.70
2017-10-26T05:59:14.607Z,73.67
2017-10-26T06:01:42.120Z,68.33
2017-10-26T06:04:09.663Z,72.10
2017-10-26T06:06:37.945Z,76.10
2017-10-26T06:09:06.266Z,79.30
2017-10-26T06:11:33.781Z,72.63
2017-10-26T06:14:01.309Z,76.43
2017-10-26T06:16:28.848Z,70.60
2017-10-26T06:18:56.360Z,83.57
2017-10-26T06:21:23.892Z,75.93
2017-10-26T06:23:51.424Z,73.60
2017-10-26T06:26:18.995Z,74.33
2017-10-26T06:28:46.504Z,74.73
2017-10-26T06:31:14.021Z,72.13
2017-10-26T06:33:42.321Z,73.07
2017-10-26T06:36:10.595Z,69.73
2017-10-26T06:38:38.892Z,74.07
2017-10-26T06:41:06.405Z,67.07
2017-10-26T06:43:33.947Z,72.70
2017-10-26T06:46:01.464Z,63.67
2017-10-26T06:48:29.005Z,60.33
2017-10-26T06:50:57.304Z,67.67
2017-10-26T06:53:24.821Z,68.23
2017-10-26T06:55:53.853Z,62.63
2017-10-26T06:58:21.379Z,62.17
2017-10-26T07:00:49.686Z,67.23
2017-10-26T07:03:17.214Z,65.23
2017-10-26T07:05:45.513Z,64.63
2017-10-26T07:08:13.787Z,58.40
2017-10-26T07:10:42.075Z,60.30
2017-10-26T07:13:09.580Z,63.03
2017-10-26T07:15:37.108Z,55.10
2017-10-26T07:18:04.620Z,63.57
2017-10-26T07:20:32.912Z,56.13
2017-10-26T07:23:01.214Z,56.20
2017-10-26T07:25:28.737Z,64.87
2017-10-26T07:27:57.033Z,60.93
2017-10-26T07:30:24.559Z,54.33
2017-10-26T07:32:52.869Z,55.63
2017-10-26T07:35:20.473Z,57.70
2017-10-26T07:37:48.019Z,54.57
2017-10-26T07:40:15.547Z,51.50
2017-10-26T07:42:43.082Z,53.80
2017-10-26T07:45:11.348Z,56.10
2017-10-26T07:47:39.655Z,66.13
2017-10-26T07:50:07.180Z,66.20
2017-10-26T07:52:34.711Z,56.70
2017-10-26T07:55:02.241Z,53.60
2017-10-26T07:57:29.748Z,60.93
2017-10-26T07:59:57.297Z,52.23
2017-10-26T08:02:24.826Z,53.83
2017-10-26T08:04:52.349Z,50.93
2017-10-26T08:07:20.624Z,48.67
2017-10-26T08:09:48.921Z,53.43
2017-10-26T08:12:16.465Z,45.67
2017-10-26T08:14:44.760Z,42.67
2017-10-26T08:17:12.307Z,55.07
2017-10-26T08:19:39.836Z,46.77
2017-10-26T08:22:08.151Z,44.87
2017-10-26T08:24:35.656Z,44.50
2017-10-26T08:27:03.187Z,43.57
2017-10-26T08:29:30.716Z,43.27
2017-10-26T08:31:58.993Z,40.60
2017-10-26T08:34:26.546Z,51.33
2017-10-26T08:36:54.825Z,43.30
2017-10-26T08:39:23.136Z,35.23
2017-10-26T08:41:50.645Z,36.93
2017-10-26T08:44:18.951Z,38.00
2017-10-26T08:46:46.466Z,42.87
2017-10-26T08:49:14.015Z,40.83
2017-10-26T08:51:42.312Z,41.50
2017-10-26T08:54:09.839Z,41.93
2017-10-26T08:56:37.386Z,41.80
2017-10-26T08:59:04.893Z,41.13
2017-10-26T09:01:33.207Z,38.57
2017-10-26T09:04:00.717Z,39.40
2017-10-26T09:06:28.263Z,43.70
2017-10-26T09:08:56.551Z,37.57
2017-10-26T09:11:24.096Z,44.03
2017-10-26T09:13:51.600Z,31.63
2017-10-26T09:16:19.138Z,37.10
2017-10-26T09:18:47.421Z,39.30
2017-10-26T09:21:15.707Z,36.33
2017-10-26T09:23:43.994Z,35.13
2017-10-26T09:26:11.525Z,30.87
2017-10-26T09:28:39.818Z,35.13
2017-10-26T09:31:07.329Z,34.07
2017-10-26T09:33:38.797Z,35.33
2017-10-26T09:36:06.309Z,31.43
2017-10-26T09:38:33.828Z,32.47
2017-10-26T09:41:02.105Z,37.20
2017-10-26T09:43:30.418Z,40.43
2017-10-26T09:45:58.955Z,38.30
2017-10-26T09:48:26.465Z,33.57
2017-10-26T09:50:53.992Z,24.43
2017-10-26T09:53:22.266Z,32.73
2017-10-26T09:55:49.801Z,34.77
2017-10-26T09:58:18.072Z,27.20
2017-10-26T10:00:45.603Z,29.87
2017-10-26T10:03:13.112Z,25.33
2017-10-26T10:05:41.423Z,29.70
2017-10-26T10:08:08.942Z,28.30
2017-10-26T10:10:37.239Z,27.00
2017-10-26T10:13:04.786Z,27.10
2017-10-26T10:15:33.080Z,31.67
2017-10-26T10:18:00.608Z,26.43
2017-10-26T10:20:28.883Z,24.60
2017-10-26T10:22:57.195Z,29.63
2017-10-26T10:25:24.703Z,26.80
2017-10-26T10:27:52.371Z,24.43
2017-10-26T10:30:19.907Z,29.77
2017-10-26T10:32:47.458Z,32.07
2017-10-26T10:35:14.965Z,29.70
2017-10-26T10:37:43.257Z,29.93
2017-10-26T10:40:10.790Z,30.60
2017-10-26T10:42:39.110Z,37.83
2017-10-26T10:45:06.636Z,29.10
2017-10-26T10:47:34.943Z,32.83
2017-10-26T10:50:02.451Z,24.67
2017-10-26T10:52:30.766Z,27.27
2017-10-26T10:54:58.295Z,22.50
2017-10-26T10:57:26.608Z,22.40
2017-10-26T10:59:59.647Z,21.90
2017-10-26T11:02:27.189Z,22.70
2017-10-26T11:04:54.704Z,22.27
2017-10-26T11:07:22.233Z,23.80
2017-10-26T11:09:50.783Z,18.70
2017-10-26T11:12:18.335Z,23.20
2017-10-26T11:14:45.858Z,17.90
2017-10-26T11:17:13.384Z,21.77
2017-10-26T11:19:40.905Z,16.40
2017-10-26T11:22:08.434Z,15.00
2017-10-26T11:24:35.980Z,16.73
2017-10-26T11:27:04.272Z,13.40
2017-10-26T11:29:31.816Z,21.00
2017-10-26T11:32:00.102Z,14.83
2017-10-26T11:34:27.605Z,15.50
2017-10-26T11:36:55.147Z,13.63
2017-10-26T11:39:22.649Z,11.40
2017-10-26T11:41:50.177Z,12.13
2017-10-26T11:44:17.694Z,16.30
2017-10-26T11:46:45.243Z,13.20
2017-10-26T11:49:13.547Z,12.50
2017-10-26T11:51:41.067Z,11.20
2017-10-26T11:54:09.361Z,17.53
2017-10-26T11:56:36.877Z,14.37
2017-10-26T11:59:04.404Z,11.57
2017-10-26T12:01:31.908Z,14.00
2017-10-26T12:03:59.439Z,10.53
2017-10-26T12:06:26.967Z,15.03
2017-10-26T12:08:54.501Z,10.10
2017-10-26T12:11:22.808Z,14.40
2017-10-26T12:13:50.331Z,11.70
2017-10-26T12:16:18.635Z,12.30
2017-10-26T12:18:46.143Z,9.83
2017-10-26T12:21:14.429Z,10.67
2017-10-26T12:23:41.951Z,6.77
2017-10-26T12:26:09.486Z,7.70
2017-10-26T12:28:36.995Z,12.87
2017-10-26T12:31:04.529Z,14.27
2017-10-26T12:33:32.051Z,9.83
2017-10-26T12:35:59.586Z,10.60
2017-10-26T12:38:27.852Z,12.10
2017-10-26T12:40:55.394Z,10.33
2017-10-26T12:43:22.910Z,12.53
2017-10-26T12:45:50.413Z,7.87
2017-10-26T12:48:17.955Z,12.60
2017-10-26T12:50:45.460Z,14.30
2017-10-26T12:53:13.773Z,8.17
2017-10-26T12:55:41.281Z,8.50
2017-10-26T12:58:08.889Z,9.17
2017-10-26T13:00:36.407Z,8.00
2017-10-26T13:03:04.709Z,9.17
2017-10-26T13:05:32.226Z,10.37
2017-10-26T13:07:59.775Z,12.90
2017-10-26T13:10:27.303Z,11.83
2017-10-26T13:12:54.820Z,8.33
2017-10-26T13:15:23.088Z,8.53
2017-10-26T13:17:50.609Z,11.33
2017-10-26T13:20:18.108Z,11.40
2017-10-26T13:22:46.409Z,12.50
2017-10-26T13:25:13.935Z,11.63
2017-10-26T13:27:41.446Z,8.83
2017-10-26T13:30:08.964Z,9.00
2017-10-26T13:32:37.267Z,11.43
2017-10-26T13:35:04.788Z,10.47
2017-10-26T13:37:32.301Z,12.20
2017-10-26T13:39:59.820Z,17.97
2017-10-26T13:42:28.106Z,17.43
2017-10-26T13:44:55.651Z,13.60
2017-10-26T13:47:23.920Z,13.33
2017-10-26T13:49:52.275Z,14.30
2017-10-26T13:52:19.802Z,14.60
2017-10-26T13:54:47.324Z,16.93
2017-10-26T13:57:15.596Z,16.43
2017-10-26T13:59:43.892Z,23.00
2017-10-26T14:02:11.392Z,19.13
2017-10-26T14:04:38.916Z,23.87
2017-10-26T14:07:06.443Z,18.10
2017-10-26T14:09:34.744Z,23.43
2017-10-26T14:12:02.257Z,41.60
2017-10-26T14:14:29.766Z,19.00
2017-10-26T14:16:57.292Z,27.83
2017-10-26T14:19:24.847Z,17.90
2017-10-26T14:21:52.370Z,21.07
2017-10-26T14:24:19.876Z,22.10
2017-10-26T14:26:48.164Z,20.33
2017-10-26T14:29:16.506Z,20.60
2017-10-26T14:31:45.534Z,19.07
2017-10-26T14:34:13.808Z,20.60
2017-10-26T14:36:42.115Z,24.10
2017-10-26T14:39:09.625Z,21.47
2017-10-26T14:41:37.171Z,22.83
2017-10-26T14:44:04.694Z,21.90
2017-10-26T14:46:32.216Z,22.83
2017-10-26T14:49:00.493Z,23.30
2017-10-26T14:51:28.900Z,23.90
2017-10-26T14:53:56.431Z,27.90
2017-10-26T14:56:23.992Z,24.47
2017-10-26T14:58:51.542Z,25.30
2017-10-26T15:01:19.825Z,26.63
2017-10-26T15:03:48.112Z,28.90
2017-10-26T15:06:15.653Z,28.33
2017-10-26T15:08:43.944Z,26.37
2017-10-26T15:11:11.456Z,34.07
2017-10-26T15:13:39.004Z,32.80
2017-10-26T15:16:06.531Z,27.43
2017-10-26T15:18:34.086Z,30.10
2017-10-26T15:21:01.596Z,30.90
2017-10-26T15:23:30.649Z,27.87
2017-10-26T15:25:58.160Z,30.30
2017-10-26T15:28:25.684Z,33.53
2017-10-26T15:30:53.193Z,27.90
2017-10-26T15:33:21.519Z,29.47
2017-10-26T15:35:49.036Z,32.50
2017-10-26T15:38:16.571Z,34.23
2017-10-26T15:40:44.122Z,31.83
2017-10-26T15:43:13.166Z,36.13
2017-10-26T15:45:40.708Z,37.43
2017-10-26T15:48:08.236Z,34.00
2017-10-26T15:50:35.789Z,38.67
2017-10-26T15:53:03.297Z,38.00
2017-10-26T15:55:30.825Z,46.10
2017-10-26T15:57:59.122Z,39.83
2017-10-26T16:00:26.670Z,51.20
2017-10-26T16:02:54.962Z,53.63
2017-10-26T16:05:22.466Z,39.90
2017-10-26T16:07:50.010Z,41.13
2017-10-26T16:10:17.543Z,44.27
2017-10-26T16:12:45.086Z,44.13
2017-10-26T16:15:12.603Z,41.20
2017-10-26T16:17:40.141Z,43.03
2017-10-26T16:20:07.676Z,50.40
2017-10-26T16:22:35.212Z,44.17
2017-10-26T16:25:03.484Z,50.03
2017-10-26T16:27:31.911Z,47.90
2017-10-26T16:29:59.450Z,43.70
2017-10-26T16:32:26.974Z,55.37
2017-10-26T16:34:55.264Z,50.40
2017-10-26T16:37:23.532Z,46.93
2017-10-26T16:39:51.850Z,54.97
2017-10-26T16:42:19.387Z,46.90
2017-10-26T16:44:46.916Z,49.27
2017-10-26T16:47:14.450Z,54.37
2017-10-26T16:49:41.992Z,56.40
2017-10-26T16:52:09.504Z,49.63
2017-10-26T16:54:37.827Z,58.43
2017-10-26T16:57:05.355Z,52.87
2017-10-26T16:59:32.910Z,52.70
2017-10-26T17:02:01.218Z,53.30
2017-10-26T17:04:28.768Z,57.03
2017-10-26T17:06:56.297Z,56.03
2017-10-26T17:09:24.567Z,57.87
2017-10-26T17:11:52.852Z,55.20
2017-10-26T17:14:21.128Z,52.37
2017-10-26T17:16:49.416Z,49.10
2017-10-26T17:19:16.929Z,52.20
2017-10-26T17:21:44.486Z,50.87
2017-10-26T17:24:11.996Z,53.83
2017-10-26T17:26:39.518Z,60.40
2017-10-26T17:29:07.826Z,46.33
2017-10-26T17:31:35.350Z,51.37
2017-10-26T17:34:03.641Z,59.17
2017-10-26T17:36:31.931Z,59.37
2017-10-26T17:38:59.479Z,53.60
2017-10-26T17:41:27.766Z,54.63
2017-10-26T17:43:55.306Z,57.03
2017-10-26T17:46:23.598Z,55.80
2017-10-26T17:48:51.129Z,59.63
2017-10-26T17:51:19.422Z,55.27
2017-10-26T17:53:47.726Z,56.83
2017-10-26T17:56:15.232Z,55.47
2017-10-26T17:58:42.752Z,52.60
2017-10-26T18:01:10.251Z,62.80
2017-10-26T18:03:37.795Z,52.80
2017-10-26T18:06:05.319Z,55.80
2017-10-26T18:08:32.861Z,56.50
2017-10-26T18:11:00.382Z,56.37
2017-10-26T18:13:27.903Z,54.77
2017-10-26T18:15:55.428Z,59.43
2017-10-26T18:18:23.727Z,60.40
2017-10-26T18:20:51.301Z,56.30
2017-10-26T18:23:18.823Z,48.57
2017-10-26T18:25:46.361Z,60.00
2017-10-26T18:28:14.655Z,53.67
2017-10-26T18:30:42.987Z,57.93
2017-10-26T18:33:10.492Z,60.17
2017-10-26T18:35:38.762Z,50.43
2017-10-26T18:38:06.322Z,49.43
2017-10-26T18:40:34.596Z,52.17
2017-10-26T18:43:02.887Z,63.43
2017-10-26T18:45:31.160Z,49.30
2017-10-26T18:47:59.479Z,58.50
2017-10-26T18:50:26.983Z,56.50
2017-10-26T18:52:55.292Z,73.20
2017-10-26T18:55:22.818Z,54.43
2017-10-26T18:57:50.330Z,59.87
2017-10-26T19:00:17.871Z,56.17
2017-10-26T19:02:45.395Z,56.43
2017-10-26T19:05:13.684Z,60.67
2017-10-26T19:07:41.979Z,59.33
2017-10-26T19:10:09.538Z,64.77
2017-10-26T19:12:37.062Z,61.50
2017-10-26T19:15:05.383Z,66.63
2017-10-26T19:17:32.906Z,65.10
2017-10-26T19:20:01.192Z,56.23
2017-10-26T19:22:28.724Z,56.73
2017-10-26T19:24:57.019Z,46.10
2017-10-26T19:27:25.312Z,51.67
2017-10-26T19:29:52.850Z,43.53
2017-10-26T19:32:21.154Z,48.03
2017-10-26T19:34:48.675Z,52.77
2017-10-26T19:37:16.992Z,50.60
2017-10-26T19:39:44.520Z,45.00
2017-10-26T19:42:12.873Z,48.10
2017-10-26T19:44:40.385Z,45.97
2017-10-26T19:47:07.938Z,46.50
2017-10-26T19:49:35.556Z,51.07
2017-10-26T19:52:03.077Z,46.67
2017-10-26T19:54:30.605Z,52.07
2017-10-26T19:56:58.905Z,59.10
2017-10-26T19:59:26.447Z,56.10
2017-10-26T20:01:53.975Z,58.20
2017-10-26T20:04:22.282Z,69.20
2017-10-26T20:06:49.811Z,58.60
2017-10-26T20:09:18.131Z,58.93
2017-10-26T20:11:45.680Z,60.17
2017-10-26T20:14:13.216Z,59.67
2017-10-26T20:16:41.532Z,56.97
2017-10-26T20:19:09.088Z,54.80
2017-10-26T20:21:36.638Z,62.33
2017-10-26T20:24:04.184Z,55.80
2017-10-26T20:26:31.731Z,66.27
2017-10-26T20:29:00.009Z,70.37
2017-10-26T20:31:28.332Z,62.50
2017-10-26T20:33:55.906Z,62.13
2017-10-26T20:36:23.426Z,65.63
2017-10-26T20:38:50.971Z,73.63
2017-10-26T20:41:18.492Z,67.50
2017-10-26T20:43:47.532Z,64.23
2017-10-26T20:46:15.061Z,64.70
2017-10-26T20:48:43.353Z,66.63
2017-10-26T20:51:17.495Z,61.13
2017-10-26T20:53:50.744Z,62.27
2017-10-26T20:56:24.569Z,63.67
2017-10-26T20:58:58.772Z,67.17
2017-10-26T21:04:40.403Z,68.00
2017-10-26T21:07:24.659Z,72.03
2017-10-26T21:09:53.018Z,73.90
2017-10-26T21:12:27.035Z,75.97
2017-10-26T21:14:54.587Z,78.50
2017-10-26T21:17:22.862Z,82.90
2017-10-26T21:19:51.168Z,75.97
2017-10-26T21:22:18.678Z,80.10
2017-10-26T21:24:46.985Z,94.63
2017-10-26T21:27:14.531Z,89.90
2017-10-26T21:29:42.046Z,85.00
2017-10-26T21:32:09.629Z,80.07
2017-10-26T21:34:37.141Z,82.73
2017-10-26T21:37:04.676Z,81.27
2017-10-26T21:39:32.223Z,86.40
2017-10-26T21:42:00.521Z,81.27
2017-10-26T21:44:28.033Z,89.33
2017-10-26T21:46:55.595Z,89.87
2017-10-26T21:49:23.123Z,93.20
2017-10-26T21:51:50.650Z,91.13
2017-10-26T21:54:18.189Z,92.17
2017-10-26T21:56:46.484Z,94.90
2017-10-26T21:59:14.167Z,95.97
2017-10-26T22:01:41.676Z,98.43
2017-10-26T22:04:10.029Z,107.87
2017-10-26T22:06:37.555Z,85.17
2017-10-26T22:09:05.091Z,92.63
2017-10-26T22:11:32.624Z,78.70
2017-10-26T22:14:00.151Z,90.93
2017-10-26T22:16:27.681Z,91.17
2017-10-26T22:18:55.190Z,96.67
2017-10-26T22:21:22.748Z,92.63
2017-10-26T22:23:50.263Z,84.33
2017-10-26T22:26:17.777Z,82.67
2017-10-26T22:28:45.318Z,84.23
2017-10-26T22:31:12.833Z,70.40
2017-10-26T22:33:40.374Z,77.20
2017-10-26T22:36:08.671Z,59.27
2017-10-26T22:38:36.222Z,63.17
2017-10-26T22:41:03.745Z,54.70
2017-10-26T22:43:31.417Z,59.83
2017-10-26T22:45:59.607Z,50.20
2017-10-26T22:48:27.396Z,49.77
2017-10-26T22:50:54.999Z,52.23
2017-10-26T22:53:22.724Z,47.23
2017-10-26T22:55:50.311Z,62.47
2017-10-26T22:58:17.828Z,45.03
2017-10-26T23:00:45.362Z,59.90
2017-10-26T23:03:13.679Z,56.90
2017-10-26T23:05:41.197Z,58.53
2017-10-26T23:08:09.523Z,65.53
2017-10-26T23:10:37.058Z,62.40
2017-10-26T23:13:04.624Z,71.40
2017-10-26T23:15:32.138Z,58.80
2017-10-26T23:17:59.657Z,61.80
2017-10-26T23:20:27.206Z,48.77
2017-10-26T23:22:54.734Z,55.10
2017-10-26T23:25:22.291Z,57.63
2017-10-26T23:27:50.578Z,59.80
2017-10-26T23:30:18.140Z,55.60
2017-10-26T23:32:45.671Z,64.90
2017-10-26T23:35:13.962Z,63.07
2017-10-26T23:37:41.501Z,58.13
2017-10-26T23:40:09.031Z,60.83
2017-10-26T23:42:36.579Z,50.47
2017-10-26T23:45:04.119Z,54.67
2017-10-26T23:47:31.671Z,52.20
2017-10-26T23:49:59.196Z,49.77
2017-10-26T23:52:27.492Z,49.53
2017-10-26T23:54:55.047Z,46.13
2017-10-26T23:57:23.336Z,51.70
2017-10-26T23:59:51.196Z,53.10
